Marine Hornbill — 3FEF3 — position and weather

sailwx.info

Track history (hours):
 
Tides and Currents Weather Stations Pressure Air Temp Water Temp Dewpoint Dewpoint Depression Visibility Wind Speed Wind Dir Waves Ship Positions

Marine Hornbill

Last reported at 2015-Jul-28 10:32 UTC. Time now 2015-Jul-30 00:08 UTC.
Position N 33°41' E 129°54'.

Length 116 m; draft 5.8 m.

Type: Cargo ship. MMSI: 357869000.

Date/timePositionNaut miles runAvg speedWind from/ knotsBaromVisibWave heightAir tempDewpointWater temp
2015-Jul-28 10:32N 33°41' E 129°54'1212.2
2015-Jul-28 09:33N 33°43' E 130°08'9 9.2
2015-Jul-28 08:33N 33°39' E 130°18'6 5.6
2015-Jul-28 07:32N 33°36' E 130°24'0 0.0
2015-Jul-28 06:32N 33°36' E 130°24'0 0.0
2015-Jul-28 05:32N 33°36' E 130°24'0 0.0
2015-Jul-28 04:32N 33°36' E 130°24'0 0.0
2015-Jul-28 03:32N 33°36' E 130°24'0 0.0
2015-Jul-28 02:29N 33°36' E 130°24'0 0.0
2015-Jul-28 01:32N 33°36' E 130°24'0 0.0
2015-Jul-28 00:32N 33°36' E 130°24'0 0.0
2015-Jul-27 23:32N 33°36' E 130°24'0 0.0
2015-Jul-27 22:29N 33°36' E 130°24'2 1.9
2015-Jul-27 21:33N 33°38' E 130°22'5 4.7
2015-Jul-27 20:33N 33°39' E 130°17'6 5.9
2015-Jul-27 19:33N 33°45' E 130°17'8 8.1
2015-Jul-27 18:32N 33°53' E 130°21'9 8.5
2015-Jul-27 17:27N 34°01' E 130°26'  
Track history (hours):
 
Tides and Currents Weather Stations Pressure Air Temp Water Temp Dewpoint Dewpoint Depression Visibility Wind Speed Wind Dir Waves Ship Positions

Marine Hornbill

Last reported at 2015-Jul-28 10:32 UTC. Time now 2015-Jul-30 00:08 UTC.
Position N 33°41' E 129°54'.

Length 116 m; draft 5.8 m.

Type: Cargo ship. MMSI: 357869000.

Date/timePositionNaut miles runAvg speedWind from/ knotsBaromVisibWave heightAir tempDewpointWater temp
2015-Jul-28 10:32N 33°41' E 129°54'1212.2
2015-Jul-28 09:33N 33°43' E 130°08'9 9.2
2015-Jul-28 08:33N 33°39' E 130°18'6 5.6
2015-Jul-28 07:32N 33°36' E 130°24'0 0.0
2015-Jul-28 06:32N 33°36' E 130°24'0 0.0
2015-Jul-28 05:32N 33°36' E 130°24'0 0.0
2015-Jul-28 04:32N 33°36' E 130°24'0 0.0
2015-Jul-28 03:32N 33°36' E 130°24'0 0.0
2015-Jul-28 02:29N 33°36' E 130°24'0 0.0
2015-Jul-28 01:32N 33°36' E 130°24'0 0.0
2015-Jul-28 00:32N 33°36' E 130°24'0 0.0
2015-Jul-27 23:32N 33°36' E 130°24'0 0.0
2015-Jul-27 22:29N 33°36' E 130°24'2 1.9
2015-Jul-27 21:33N 33°38' E 130°22'5 4.7
2015-Jul-27 20:33N 33°39' E 130°17'6 5.9
2015-Jul-27 19:33N 33°45' E 130°17'8 8.1
2015-Jul-27 18:32N 33°53' E 130°21'9 8.5
2015-Jul-27 17:27N 34°01' E 130°26'  

Dump ship's entire track history